createdAt,value
2018-10-19T00:05:07.694Z,7.80
2018-10-19T00:07:37.050Z,7.80
2018-10-19T00:10:07.586Z,7.90
2018-10-19T00:12:37.773Z,7.90
2018-10-19T00:15:08.212Z,7.80
2018-10-19T00:17:37.522Z,7.80
2018-10-19T00:20:08.353Z,7.90
2018-10-19T00:22:38.636Z,7.90
2018-10-19T00:25:08.963Z,7.90
2018-10-19T00:27:38.795Z,7.90
2018-10-19T00:30:09.370Z,8.00
2018-10-19T00:32:39.372Z,8.00
2018-10-19T00:35:09.462Z,8.10
2018-10-19T00:37:38.997Z,8.10
2018-10-19T00:40:08.492Z,8.10
2018-10-19T00:42:38.122Z,8.10
2018-10-19T00:45:07.930Z,8.20
2018-10-19T00:47:37.337Z,8.20
2018-10-19T00:50:06.818Z,8.20
2018-10-19T00:52:36.094Z,8.30
2018-10-19T00:55:06.917Z,8.40
2018-10-19T00:57:37.298Z,8.40
2018-10-19T01:00:06.755Z,8.50
2018-10-19T01:02:36.277Z,8.50
2018-10-19T01:05:05.864Z,8.60
2018-10-19T01:07:35.167Z,8.60
2018-10-19T01:10:05.457Z,8.50
2018-10-19T01:12:35.466Z,8.40
2018-10-19T01:15:04.816Z,8.50
2018-10-19T01:17:34.990Z,8.50
2018-10-19T01:20:04.306Z,8.40
2018-10-19T01:22:33.751Z,8.30
2018-10-19T01:25:03.093Z,8.20
2018-10-19T01:27:32.411Z,8.20
2018-10-19T01:30:01.813Z,8.20
2018-10-19T01:32:31.261Z,8.10
2018-10-19T01:35:00.739Z,8.10
2018-10-19T01:37:30.172Z,8.10
2018-10-19T01:39:59.633Z,8.10
2018-10-19T01:42:29.292Z,8.10
2018-10-19T01:44:58.680Z,8.10
2018-10-19T01:47:28.643Z,8.10
2018-10-19T01:49:57.945Z,8.10
2018-10-19T01:52:27.530Z,8.10
2018-10-19T01:54:57.163Z,8.10
2018-10-19T01:57:27.453Z,8.10
2018-10-19T01:59:57.572Z,8.10
2018-10-19T02:02:27.082Z,8.10
2018-10-19T02:04:56.741Z,8.10
2018-10-19T02:07:26.301Z,8.20
2018-10-19T02:09:55.613Z,8.20
2018-10-19T02:12:25.827Z,8.20
2018-10-19T02:14:55.173Z,8.20
2018-10-19T02:17:24.563Z,8.20
2018-10-19T02:19:54.355Z,8.20
2018-10-19T02:22:23.836Z,8.20
2018-10-19T02:24:53.881Z,8.10
2018-10-19T02:27:23.199Z,8.10
2018-10-19T02:29:52.770Z,8.10
2018-10-19T02:32:22.535Z,8.10
2018-10-19T02:34:51.978Z,8.20
2018-10-19T02:37:21.302Z,8.10
2018-10-19T02:39:50.587Z,8.20
2018-10-19T02:42:19.880Z,8.20
2018-10-19T02:44:49.184Z,8.20
2018-10-19T02:47:18.789Z,8.30
2018-10-19T02:49:48.123Z,8.30
2018-10-19T02:52:17.534Z,8.40
2018-10-19T02:54:46.890Z,8.50
2018-10-19T02:57:16.473Z,8.50
2018-10-19T02:59:45.726Z,8.50
2018-10-19T03:02:15.028Z,8.60
2018-10-19T03:04:44.312Z,8.60
2018-10-19T03:07:13.664Z,8.70
2018-10-19T03:09:42.909Z,8.80
2018-10-19T03:12:12.228Z,8.80
2018-10-19T03:14:42.229Z,8.90
2018-10-19T03:17:12.229Z,9.00
2018-10-19T03:19:41.804Z,9.00
2018-10-19T03:22:11.927Z,9.00
2018-10-19T03:24:41.200Z,8.90
2018-10-19T03:27:10.631Z,8.90
2018-10-19T03:29:40.356Z,8.90
2018-10-19T03:32:09.897Z,8.90
2018-10-19T03:34:40.845Z,8.90
2018-10-19T03:37:10.118Z,8.90
2018-10-19T03:39:39.486Z,8.80
2018-10-19T03:42:08.863Z,8.90
2018-10-19T03:44:39.040Z,8.90
2018-10-19T03:47:08.448Z,8.90
2018-10-19T03:49:37.823Z,8.90
2018-10-19T03:52:07.297Z,8.90
2018-10-19T03:54:36.778Z,8.80
2018-10-19T03:57:06.226Z,8.70
2018-10-19T03:59:35.563Z,8.70
2018-10-19T04:02:05.213Z,8.80
2018-10-19T04:04:34.664Z,8.80
2018-10-19T04:07:04.561Z,8.70
2018-10-19T04:09:33.902Z,8.60
2018-10-19T04:12:03.935Z,8.40
2018-10-19T04:14:33.238Z,8.20
2018-10-19T04:17:02.579Z,8.10
2018-10-19T04:19:32.155Z,8.10
2018-10-19T04:22:01.733Z,8.10
2018-10-19T04:24:31.242Z,8.10
2018-10-19T04:27:00.903Z,8.10
2018-10-19T04:29:30.254Z,8.10
2018-10-19T04:31:59.697Z,8.10
2018-10-19T04:34:29.086Z,8.00
2018-10-19T04:37:02.826Z,8.00
2018-10-19T04:39:33.437Z,8.00
2018-10-19T04:42:03.903Z,8.10
2018-10-19T04:44:33.130Z,8.20
2018-10-19T04:47:02.867Z,8.20
2018-10-19T04:49:32.433Z,8.20
2018-10-19T04:52:02.178Z,8.20
2018-10-19T04:54:31.469Z,8.20
2018-10-19T04:57:00.827Z,8.20
2018-10-19T04:59:30.136Z,8.20
2018-10-19T05:01:59.639Z,8.10
2018-10-19T05:04:28.942Z,8.10
2018-10-19T05:06:58.209Z,8.00
2018-10-19T05:09:27.523Z,7.90
2018-10-19T05:11:56.862Z,7.70
2018-10-19T05:14:26.164Z,7.40
2018-10-19T05:16:55.556Z,7.20
2018-10-19T05:19:24.791Z,7.10
2018-10-19T05:21:54.131Z,6.90
2018-10-19T05:24:23.438Z,6.80
2018-10-19T05:26:52.687Z,6.80
2018-10-19T05:29:22.117Z,6.80
2018-10-19T05:31:51.390Z,6.90
2018-10-19T05:34:20.665Z,6.90
2018-10-19T05:36:50.768Z,6.90
2018-10-19T05:39:20.092Z,6.80
2018-10-19T05:41:49.488Z,6.70
2018-10-19T05:44:18.867Z,6.60
2018-10-19T05:46:48.207Z,6.50
2018-10-19T05:49:18.251Z,6.40
2018-10-19T05:51:47.539Z,6.40
2018-10-19T05:54:16.883Z,6.30
2018-10-19T05:56:46.174Z,6.30
2018-10-19T05:59:15.522Z,6.30
2018-10-19T06:01:44.835Z,6.20
2018-10-19T06:04:14.160Z,6.10
2018-10-19T06:06:43.422Z,6.00
2018-10-19T06:09:12.762Z,6.00
2018-10-19T06:11:42.406Z,6.00
2018-10-19T06:14:11.784Z,5.80
2018-10-19T06:16:41.183Z,5.70
2018-10-19T06:19:11.124Z,5.60
2018-10-19T06:21:40.504Z,5.90
2018-10-19T06:24:09.970Z,6.10
2018-10-19T06:26:39.371Z,6.20
2018-10-19T06:29:08.857Z,6.20
2018-10-19T06:31:38.152Z,6.20
2018-10-19T06:34:07.544Z,6.20
2018-10-19T06:36:36.907Z,6.20
2018-10-19T06:39:08.544Z,6.30
2018-10-19T06:41:37.957Z,6.40
2018-10-19T06:44:08.204Z,6.50
2018-10-19T06:46:38.431Z,6.50
2018-10-19T06:49:07.762Z,6.50
2018-10-19T06:51:37.684Z,6.50
2018-10-19T06:54:07.270Z,6.50
2018-10-19T06:56:36.601Z,6.50
2018-10-19T06:59:06.038Z,6.60
2018-10-19T07:01:35.430Z,6.70
2018-10-19T07:04:04.810Z,6.80
2018-10-19T07:06:34.183Z,7.00
2018-10-19T07:09:04.623Z,7.20
2018-10-19T07:11:34.120Z,7.40
2018-10-19T07:14:03.500Z,7.70
2018-10-19T07:16:32.795Z,7.80
2018-10-19T07:19:02.296Z,8.00
2018-10-19T07:21:31.617Z,8.20
2018-10-19T07:24:00.923Z,8.40
2018-10-19T07:26:30.481Z,8.70
2018-10-19T07:28:59.812Z,9.10
2018-10-19T07:31:29.121Z,9.50
2018-10-19T07:33:58.491Z,9.90
2018-10-19T07:36:27.899Z,10.20
2018-10-19T07:38:57.169Z,10.40
2018-10-19T07:41:27.061Z,10.60
2018-10-19T07:43:57.155Z,10.70
2018-10-19T07:46:26.515Z,10.60
2018-10-19T07:48:55.810Z,10.60
2018-10-19T07:51:25.214Z,10.60
2018-10-19T07:53:54.656Z,10.50
2018-10-19T07:56:23.940Z,10.60
2018-10-19T07:58:53.259Z,10.70
2018-10-19T08:01:22.640Z,10.90
2018-10-19T08:03:51.916Z,11.10
2018-10-19T08:06:21.299Z,11.60
2018-10-19T08:08:50.632Z,12.20
2018-10-19T08:11:19.998Z,12.70
2018-10-19T08:13:49.303Z,13.10
2018-10-19T08:16:18.642Z,13.60
2018-10-19T08:18:48.073Z,14.40
2018-10-19T08:21:17.451Z,15.10
2018-10-19T08:23:46.731Z,15.60
2018-10-19T08:26:16.242Z,15.70
2018-10-19T08:28:45.558Z,16.20
2018-10-19T08:31:15.472Z,17.00
2018-10-19T08:33:44.771Z,17.70
2018-10-19T08:36:14.100Z,17.40
2018-10-19T08:38:43.420Z,17.40
2018-10-19T08:41:12.923Z,17.80
2018-10-19T08:43:42.257Z,17.90
2018-10-19T08:46:16.969Z,17.30
2018-10-19T08:48:46.289Z,17.30
2018-10-19T08:51:15.769Z,17.80
2018-10-19T08:53:45.082Z,17.60
2018-10-19T08:56:14.413Z,18.00
2018-10-19T08:58:43.775Z,17.40
2018-10-19T09:01:13.786Z,16.40
2018-10-19T09:03:43.076Z,16.90
2018-10-19T09:06:13.661Z,17.50
2018-10-19T09:08:43.357Z,17.20
2018-10-19T09:11:12.861Z,16.70
2018-10-19T09:13:42.134Z,16.10
2018-10-19T09:16:11.994Z,15.60
2018-10-19T09:18:41.537Z,16.00
2018-10-19T09:21:10.899Z,15.80
2018-10-19T09:23:41.215Z,15.80
2018-10-19T09:26:10.983Z,15.80
2018-10-19T09:28:40.466Z,16.10
2018-10-19T09:31:09.862Z,15.90
2018-10-19T09:33:39.360Z,15.50
2018-10-19T09:36:08.985Z,15.30
2018-10-19T09:38:38.889Z,15.00
2018-10-19T09:41:09.035Z,15.10
2018-10-19T09:43:38.284Z,15.30
2018-10-19T09:46:08.302Z,15.50
2018-10-19T09:48:37.660Z,15.70
2018-10-19T09:51:07.696Z,16.00
2018-10-19T09:53:36.973Z,16.10
2018-10-19T09:56:06.467Z,16.20
2018-10-19T09:58:35.890Z,16.60
2018-10-19T10:01:09.792Z,16.20
2018-10-19T10:03:39.220Z,16.60
2018-10-19T10:06:09.368Z,16.30
2018-10-19T10:08:38.747Z,16.20
2018-10-19T10:11:08.158Z,15.80
2018-10-19T10:13:37.435Z,15.80
2018-10-19T10:16:06.869Z,15.90
2018-10-19T10:18:36.641Z,15.80
2018-10-19T10:21:07.759Z,15.50
2018-10-19T10:23:37.080Z,15.30
2018-10-19T10:26:06.608Z,15.40
2018-10-19T10:28:35.988Z,16.20
2018-10-19T10:31:05.816Z,16.40
2018-10-19T10:33:35.481Z,16.40
2018-10-19T10:36:04.973Z,16.20
2018-10-19T10:38:35.098Z,15.60
2018-10-19T10:41:04.595Z,15.40
2018-10-19T10:43:34.092Z,15.60
2018-10-19T10:46:03.621Z,15.60
2018-10-19T10:48:32.954Z,16.20
2018-10-19T10:51:02.895Z,16.40
2018-10-19T10:53:32.349Z,16.60
2018-10-19T10:56:01.950Z,16.60
2018-10-19T10:58:31.526Z,17.00
2018-10-19T11:01:01.442Z,17.60
2018-10-19T11:03:31.552Z,18.00
2018-10-19T11:06:01.210Z,18.40
2018-10-19T11:08:30.573Z,19.00
2018-10-19T11:11:10.605Z,19.40
2018-10-19T11:13:41.584Z,19.50
2018-10-19T11:16:12.097Z,19.50
2018-10-19T11:18:42.197Z,19.00
2018-10-19T11:21:11.641Z,18.70
2018-10-19T11:23:41.738Z,18.30
2018-10-19T11:26:11.548Z,17.90
2018-10-19T11:28:41.742Z,18.30
2018-10-19T11:31:11.183Z,18.60
2018-10-19T11:33:40.497Z,18.20
2018-10-19T11:36:09.937Z,18.10
2018-10-19T11:38:40.186Z,18.30
2018-10-19T11:41:09.766Z,19.20
2018-10-19T11:43:39.115Z,19.70
2018-10-19T11:46:08.458Z,19.30
2018-10-19T11:48:38.909Z,19.40
2018-10-19T11:51:08.383Z,19.60
2018-10-19T11:53:37.732Z,19.10
2018-10-19T11:56:07.649Z,18.90
2018-10-19T11:58:37.237Z,19.50
2018-10-19T12:01:06.654Z,19.20
2018-10-19T12:03:37.505Z,19.00
2018-10-19T12:06:07.213Z,18.20
2018-10-19T12:08:37.391Z,18.40
2018-10-19T12:11:06.949Z,18.90
2018-10-19T12:13:36.297Z,19.10
2018-10-19T12:16:06.354Z,18.70
2018-10-19T12:18:36.000Z,18.90
2018-10-19T12:21:05.566Z,17.90
2018-10-19T12:23:35.561Z,18.00
2018-10-19T12:26:05.194Z,18.50
2018-10-19T12:28:35.401Z,18.90
2018-10-19T12:31:04.868Z,18.70
2018-10-19T12:33:34.195Z,19.40
2018-10-19T12:36:03.630Z,19.60
2018-10-19T12:38:32.955Z,20.00
2018-10-19T12:41:02.357Z,19.00
2018-10-19T12:43:31.700Z,17.60
2018-10-19T12:46:22.727Z,17.80
2018-10-19T12:48:53.376Z,18.30
2018-10-19T12:51:23.035Z,18.70
2018-10-19T12:53:53.477Z,19.40
2018-10-19T12:56:23.543Z,18.80
2018-10-19T12:58:54.471Z,19.30
2018-10-19T13:01:24.883Z,18.70
2018-10-19T13:03:54.289Z,18.20
2018-10-19T13:06:23.649Z,18.20
2018-10-19T13:08:53.401Z,18.20
2018-10-19T13:11:23.720Z,18.70
2018-10-19T13:13:53.322Z,19.10
2018-10-19T13:16:22.991Z,19.00
2018-10-19T13:18:52.627Z,19.00
2018-10-19T13:21:22.076Z,18.50
2018-10-19T13:23:51.576Z,18.50
2018-10-19T13:26:21.041Z,18.30
2018-10-19T13:28:50.548Z,17.40
2018-10-19T13:31:19.927Z,16.60
2018-10-19T13:33:49.424Z,17.00
2018-10-19T13:36:18.874Z,17.20
2018-10-19T13:38:48.456Z,17.30
2018-10-19T13:41:18.060Z,17.40
2018-10-19T13:43:48.081Z,17.50
2018-10-19T13:46:18.150Z,17.50
2018-10-19T13:48:48.656Z,17.60
2018-10-19T13:51:18.655Z,17.00
2018-10-19T13:53:48.072Z,15.40
2018-10-19T13:56:18.276Z,15.10
2018-10-19T13:58:48.314Z,15.80
2018-10-19T14:01:19.015Z,17.20
2018-10-19T14:03:48.584Z,18.00
2018-10-19T14:06:17.927Z,17.60
2018-10-19T14:08:47.423Z,17.60
2018-10-19T14:11:16.867Z,17.30
2018-10-19T14:13:46.134Z,17.10
2018-10-19T14:16:15.461Z,17.60
2018-10-19T14:18:44.785Z,17.80
2018-10-19T14:21:14.907Z,16.50
2018-10-19T14:23:44.328Z,15.10
2018-10-19T14:26:15.180Z,14.50
2018-10-19T14:28:44.733Z,14.20
2018-10-19T14:31:14.063Z,14.00
2018-10-19T14:33:45.125Z,13.90
2018-10-19T14:36:14.404Z,13.60
2018-10-19T14:38:43.955Z,13.40
2018-10-19T14:41:14.115Z,13.30
2018-10-19T14:43:44.529Z,13.30
2018-10-19T14:46:14.044Z,13.20
2018-10-19T14:48:44.406Z,13.10
2018-10-19T14:51:14.342Z,13.00
2018-10-19T14:53:44.588Z,13.00
2018-10-19T14:56:15.789Z,13.00
2018-10-19T14:58:45.751Z,12.80
2018-10-19T15:01:16.933Z,12.70
2018-10-19T15:03:47.213Z,12.60
2018-10-19T15:06:17.572Z,12.50
2018-10-19T15:08:46.996Z,12.40
2018-10-19T15:11:17.919Z,12.40
2018-10-19T15:13:47.252Z,12.30
2018-10-19T15:16:16.624Z,12.40
2018-10-19T15:18:46.906Z,13.10
2018-10-19T15:21:16.648Z,14.10
2018-10-19T15:23:46.342Z,14.80
2018-10-19T15:26:16.461Z,15.00
2018-10-19T15:28:45.978Z,14.90
2018-10-19T15:31:15.579Z,14.30
2018-10-19T15:33:44.989Z,13.90
2018-10-19T15:36:14.548Z,13.40
2018-10-19T15:38:44.025Z,12.80
2018-10-19T15:41:14.279Z,12.20
2018-10-19T15:43:44.045Z,11.70
2018-10-19T15:46:14.163Z,11.50
2018-10-19T15:48:45.036Z,11.30
2018-10-19T15:51:14.724Z,11.20
2018-10-19T15:53:44.078Z,11.00
2018-10-19T15:56:14.018Z,10.90
2018-10-19T15:58:43.432Z,10.70
2018-10-19T16:01:12.820Z,10.60
2018-10-19T16:03:42.736Z,10.50
2018-10-19T16:06:12.129Z,10.30
2018-10-19T16:08:41.493Z,10.20
2018-10-19T16:11:10.843Z,10.10
2018-10-19T16:13:40.277Z,9.90
2018-10-19T16:16:09.808Z,9.90
2018-10-19T16:18:39.131Z,9.80
2018-10-19T16:21:08.624Z,9.70
2018-10-19T16:23:37.893Z,9.60
2018-10-19T16:26:07.330Z,9.50
2018-10-19T16:28:36.923Z,9.40
2018-10-19T16:31:06.273Z,9.30
2018-10-19T16:33:35.591Z,9.30
2018-10-19T16:36:05.463Z,9.20
2018-10-19T16:38:34.867Z,9.20
2018-10-19T16:41:04.302Z,9.20
2018-10-19T16:43:33.600Z,9.20
2018-10-19T16:46:03.053Z,9.20
2018-10-19T16:48:32.564Z,9.20
2018-10-19T16:51:01.964Z,9.20
2018-10-19T16:53:31.391Z,9.20
2018-10-19T16:56:00.664Z,9.20
2018-10-19T16:58:29.960Z,9.20
2018-10-19T17:00:59.313Z,9.10
2018-10-19T17:03:28.800Z,9.10
2018-10-19T17:05:58.121Z,9.00
2018-10-19T17:08:27.645Z,8.90
2018-10-19T17:10:56.935Z,8.80
2018-10-19T17:13:26.279Z,8.80
2018-10-19T17:15:55.627Z,8.70
2018-10-19T17:18:24.928Z,8.70
2018-10-19T17:20:55.067Z,8.70
2018-10-19T17:23:24.346Z,8.70
2018-10-19T17:25:54.408Z,8.70
2018-10-19T17:28:23.731Z,8.60
2018-10-19T17:30:53.106Z,8.60
2018-10-19T17:33:22.400Z,8.40
2018-10-19T17:35:52.333Z,8.40
2018-10-19T17:38:21.642Z,8.30
2018-10-19T17:40:51.024Z,8.30
2018-10-19T17:43:20.464Z,8.30
2018-10-19T17:45:50.540Z,8.20
2018-10-19T17:48:19.989Z,8.20
2018-10-19T17:50:49.403Z,8.20
2018-10-19T17:53:18.739Z,8.30
2018-10-19T17:55:48.143Z,8.30
2018-10-19T17:58:17.499Z,8.30
2018-10-19T18:00:46.884Z,8.30
2018-10-19T18:03:16.238Z,8.20
2018-10-19T18:05:45.769Z,8.10
2018-10-19T18:08:15.061Z,8.10
2018-10-19T18:10:44.610Z,8.20
2018-10-19T18:13:13.913Z,8.20
2018-10-19T18:15:43.235Z,8.20
2018-10-19T18:18:12.581Z,8.20
2018-10-19T18:20:42.032Z,8.20
2018-10-19T18:23:11.571Z,8.20
2018-10-19T18:25:40.794Z,8.20
2018-10-19T18:28:10.141Z,8.20
2018-10-19T18:30:39.512Z,8.20
2018-10-19T18:33:10.209Z,8.20
2018-10-19T18:35:39.628Z,8.10
2018-10-19T18:38:09.656Z,8.00
2018-10-19T18:40:38.973Z,8.00
2018-10-19T18:43:08.375Z,8.00
2018-10-19T18:45:37.739Z,8.00
2018-10-19T18:48:07.197Z,7.90
2018-10-19T18:50:36.553Z,7.90
2018-10-19T18:53:06.396Z,7.70
2018-10-19T18:55:35.904Z,7.60
2018-10-19T18:58:05.233Z,7.60
2018-10-19T19:00:34.587Z,7.50
2018-10-19T19:03:03.912Z,7.50
2018-10-19T19:05:33.197Z,7.50
2018-10-19T19:08:02.621Z,7.40
2018-10-19T19:10:32.776Z,7.40
2018-10-19T19:13:07.570Z,7.40
2018-10-19T19:15:36.916Z,7.30
2018-10-19T19:18:06.289Z,7.20
2018-10-19T19:20:35.666Z,7.00
2018-10-19T19:23:05.258Z,6.90
2018-10-19T19:25:39.925Z,6.80
2018-10-19T19:28:09.233Z,6.60
2018-10-19T19:30:38.640Z,6.50
2018-10-19T19:33:13.795Z,6.40
2018-10-19T19:35:43.136Z,6.40
2018-10-19T19:38:12.541Z,6.30
2018-10-19T19:40:47.297Z,6.20
2018-10-19T19:43:16.653Z,6.10
2018-10-19T19:45:46.110Z,6.10
2018-10-19T19:48:20.902Z,6.10
2018-10-19T19:50:50.200Z,6.10
2018-10-19T19:53:19.467Z,6.00
2018-10-19T19:55:48.830Z,6.00
2018-10-19T19:58:18.182Z,6.10
2018-10-19T20:00:47.470Z,6.10
2018-10-19T20:03:16.791Z,6.10
2018-10-19T20:05:46.102Z,6.00
2018-10-19T20:08:15.557Z,5.90
2018-10-19T20:10:44.908Z,5.90
2018-10-19T20:13:14.258Z,5.90
2018-10-19T20:15:43.604Z,5.90
2018-10-19T20:18:13.079Z,5.90
2018-10-19T20:20:42.598Z,5.80
2018-10-19T20:23:12.016Z,5.80
2018-10-19T20:25:41.294Z,5.80
2018-10-19T20:28:10.615Z,5.90
2018-10-19T20:30:39.974Z,5.80
2018-10-19T20:33:09.303Z,5.70
2018-10-19T20:35:38.672Z,5.70
2018-10-19T20:38:09.087Z,5.70
2018-10-19T20:40:38.364Z,5.70
2018-10-19T20:43:07.699Z,5.70
2018-10-19T20:45:37.021Z,5.50
2018-10-19T20:48:07.352Z,5.40
2018-10-19T20:50:36.808Z,5.40
2018-10-19T20:53:06.225Z,5.40
2018-10-19T20:55:35.599Z,5.50
2018-10-19T20:58:04.981Z,5.70
2018-10-19T21:00:34.360Z,5.70
2018-10-19T21:03:04.377Z,5.80
2018-10-19T21:05:33.725Z,5.70
2018-10-19T21:08:03.136Z,5.60
2018-10-19T21:10:32.413Z,5.60
2018-10-19T21:13:01.890Z,5.50
2018-10-19T21:15:31.312Z,5.50
2018-10-19T21:18:00.683Z,5.40
2018-10-19T21:20:30.050Z,5.50
2018-10-19T21:23:00.147Z,5.50
2018-10-19T21:25:29.447Z,5.60
2018-10-19T21:27:58.781Z,5.60
2018-10-19T21:30:28.089Z,5.50
2018-10-19T21:32:57.397Z,5.40
2018-10-19T21:35:26.673Z,5.40
2018-10-19T21:37:57.516Z,5.40
2018-10-19T21:40:26.959Z,5.40
2018-10-19T21:42:56.937Z,5.50
2018-10-19T21:45:26.862Z,5.40
2018-10-19T21:47:56.205Z,5.40
2018-10-19T21:50:25.496Z,5.40
2018-10-19T21:52:55.095Z,5.30
2018-10-19T21:55:24.543Z,5.30
2018-10-19T21:57:53.852Z,5.20
2018-10-19T22:00:23.362Z,5.20
2018-10-19T22:02:52.671Z,5.10
2018-10-19T22:05:22.016Z,5.20
2018-10-19T22:07:51.440Z,5.30
2018-10-19T22:10:20.765Z,5.30
2018-10-19T22:12:50.133Z,5.20
2018-10-19T22:15:19.543Z,5.10
2018-10-19T22:17:48.894Z,5.20
2018-10-19T22:20:18.315Z,5.20
2018-10-19T22:22:48.353Z,5.20
2018-10-19T22:25:17.775Z,5.20
2018-10-19T22:27:47.117Z,5.10
2018-10-19T22:30:16.993Z,5.20
2018-10-19T22:32:47.147Z,5.10
2018-10-19T22:35:17.551Z,5.10
2018-10-19T22:37:47.686Z,5.10
2018-10-19T22:40:17.047Z,5.10
2018-10-19T22:42:46.487Z,5.00
2018-10-19T22:45:15.767Z,5.00
2018-10-19T22:47:45.236Z,5.00
2018-10-19T22:50:14.538Z,5.10
2018-10-19T22:52:43.899Z,5.20
2018-10-19T22:55:13.335Z,5.20
2018-10-19T22:57:42.610Z,5.20
2018-10-19T23:00:11.906Z,5.20
2018-10-19T23:02:41.220Z,5.30
2018-10-19T23:05:10.565Z,5.40
2018-10-19T23:07:39.979Z,5.60
2018-10-19T23:10:09.892Z,5.60
2018-10-19T23:12:39.284Z,5.60
2018-10-19T23:15:08.746Z,5.60
2018-10-19T23:17:38.383Z,5.60
2018-10-19T23:20:08.440Z,5.60
2018-10-19T23:22:37.813Z,5.60
2018-10-19T23:25:07.686Z,5.60
2018-10-19T23:27:37.081Z,5.60
2018-10-19T23:30:07.013Z,5.60
2018-10-19T23:32:36.313Z,5.60
2018-10-19T23:35:06.595Z,5.70
2018-10-19T23:37:35.925Z,5.70
2018-10-19T23:40:07.131Z,5.60
2018-10-19T23:42:36.437Z,5.50
2018-10-19T23:45:07.335Z,5.40
2018-10-19T23:47:37.423Z,5.30
2018-10-19T23:50:07.608Z,5.20
2018-10-19T23:52:36.939Z,5.10
2018-10-19T23:55:06.668Z,5.00
2018-10-19T23:57:35.954Z,4.90
